sensor_id;sensor_type;location;lat;lon;timestamp;pressure;altitude;pressure_sealevel;temperature;humidity
72612;BME280;60655;52.182;4.474;2024-02-21T00:00:11;102026.50;;;9.70;100.00
72612;BME280;60655;52.182;4.474;2024-02-21T00:02:12;102036.63;;;9.67;100.00
72612;BME280;60655;52.182;4.474;2024-02-21T00:04:13;102033.97;;;9.67;100.00
72612;BME280;60655;52.182;4.474;2024-02-21T00:06:14;102031.97;;;9.69;100.00
72612;BME280;60655;52.182;4.474;2024-02-21T00:08:15;102027.03;;;9.66;100.00
72612;BME280;60655;52.182;4.474;2024-02-21T00:10:16;102023.66;;;9.72;100.00
72612;BME280;60655;52.182;4.474;2024-02-21T00:12:17;102030.25;;;9.76;100.00
72612;BME280;60655;52.182;4.474;2024-02-21T00:14:17;102026.59;;;9.77;100.00
72612;BME280;60655;52.182;4.474;2024-02-21T00:16:18;102030.06;;;9.77;100.00
72612;BME280;60655;52.182;4.474;2024-02-21T00:18:19;102037.75;;;9.72;100.00
72612;BME280;60655;52.182;4.474;2024-02-21T00:20:20;102041.06;;;9.74;100.00
72612;BME280;60655;52.182;4.474;2024-02-21T00:22:21;102039.75;;;9.70;100.00
72612;BME280;60655;52.182;4.474;2024-02-21T00:24:22;102038.94;;;9.70;100.00
72612;BME280;60655;52.182;4.474;2024-02-21T00:26:23;102035.91;;;9.73;100.00
72612;BME280;60655;52.182;4.474;2024-02-21T00:28:24;102026.75;;;9.61;100.00
72612;BME280;60655;52.182;4.474;2024-02-21T00:30:25;102039.75;;;9.70;100.00
72612;BME280;60655;52.182;4.474;2024-02-21T00:32:26;102034.44;;;9.70;100.00
72612;BME280;60655;52.182;4.474;2024-02-21T00:34:27;102034.44;;;9.70;100.00
72612;BME280;60655;52.182;4.474;2024-02-21T00:36:28;102019.72;;;9.68;100.00
72612;BME280;60655;52.182;4.474;2024-02-21T00:38:28;102029.16;;;9.70;100.00
72612;BME280;60655;52.182;4.474;2024-02-21T00:40:29;102015.06;;;9.70;100.00
72612;BME280;60655;52.182;4.474;2024-02-21T00:42:30;102016.31;;;9.59;100.00
72612;BME280;60655;52.182;4.474;2024-02-21T00:44:31;102020.97;;;9.57;100.00
72612;BME280;60655;52.182;4.474;2024-02-21T00:46:32;102023.09;;;9.62;100.00
72612;BME280;60655;52.182;4.474;2024-02-21T00:48:33;102023.25;;;9.60;100.00
72612;BME280;60655;52.182;4.474;2024-02-21T00:50:34;102021.44;;;9.61;100.00
72612;BME280;60655;52.182;4.474;2024-02-21T00:52:35;102015.84;;;9.56;100.00
72612;BME280;60655;52.182;4.474;2024-02-21T00:54:36;102004.78;;;9.52;100.00
72612;BME280;60655;52.182;4.474;2024-02-21T00:56:37;102026.91;;;9.59;100.00
72612;BME280;60655;52.182;4.474;2024-02-21T00:58:38;102020.78;;;9.59;100.00
72612;BME280;60655;52.182;4.474;2024-02-21T01:00:39;102005.69;;;9.59;100.00
72612;BME280;60655;52.182;4.474;2024-02-21T01:02:40;102008.63;;;9.64;100.00
72612;BME280;60655;52.182;4.474;2024-02-21T01:04:41;101997.66;;;9.67;100.00
72612;BME280;60655;52.182;4.474;2024-02-21T01:06:42;101983.19;;;9.55;100.00
72612;BME280;60655;52.182;4.474;2024-02-21T01:08:49;101999.56;;;9.59;100.00
72612;BME280;60655;52.182;4.474;2024-02-21T01:10:50;102004.34;;;9.63;100.00
72612;BME280;60655;52.182;4.474;2024-02-21T01:12:51;102002.41;;;9.57;100.00
72612;BME280;60655;52.182;4.474;2024-02-21T01:14:52;101994.06;;;9.60;100.00
72612;BME280;60655;52.182;4.474;2024-02-21T01:16:53;101980.09;;;9.52;100.00
72612;BME280;60655;52.182;4.474;2024-02-21T01:18:54;101970.09;;;9.54;100.00
72612;BME280;60655;52.182;4.474;2024-02-21T01:20:54;101982.81;;;9.58;100.00
72612;BME280;60655;52.182;4.474;2024-02-21T01:22:55;101968.38;;;9.61;100.00
72612;BME280;60655;52.182;4.474;2024-02-21T01:24:56;101977.44;;;9.66;100.00
72612;BME280;60655;52.182;4.474;2024-02-21T01:26:57;101969.84;;;9.63;100.00
72612;BME280;60655;52.182;4.474;2024-02-21T01:28:58;101967.19;;;9.63;100.00
72612;BME280;60655;52.182;4.474;2024-02-21T01:30:59;101964.19;;;9.66;100.00
72612;BME280;60655;52.182;4.474;2024-02-21T01:33:00;101951.28;;;9.48;100.00
72612;BME280;60655;52.182;4.474;2024-02-21T01:35:01;101967.00;;;9.65;100.00
72612;BME280;60655;52.182;4.474;2024-02-21T01:37:02;101954.66;;;9.57;100.00
72612;BME280;60655;52.182;4.474;2024-02-21T01:39:05;101966.66;;;9.68;100.00
72612;BME280;60655;52.182;4.474;2024-02-21T01:41:05;101978.16;;;9.60;100.00
72612;BME280;60655;52.182;4.474;2024-02-21T01:43:17;101966.53;;;9.61;100.00
72612;BME280;60655;52.182;4.474;2024-02-21T01:45:21;101973.50;;;9.62;100.00
72612;BME280;60655;52.182;4.474;2024-02-21T01:47:22;101968.84;;;9.64;100.00
72612;BME280;60655;52.182;4.474;2024-02-21T01:49:24;101967.00;;;9.65;100.00
72612;BME280;60655;52.182;4.474;2024-02-21T01:51:25;101959.94;;;9.57;100.00
72612;BME280;60655;52.182;4.474;2024-02-21T01:53:38;101944.41;;;9.54;100.00
72612;BME280;60655;52.182;4.474;2024-02-21T01:55:44;101934.06;;;9.44;100.00
72612;BME280;60655;52.182;4.474;2024-02-21T01:57:46;101941.97;;;9.53;100.00
72612;BME280;60655;52.182;4.474;2024-02-21T01:59:47;101941.84;;;9.61;100.00
72612;BME280;60655;52.182;4.474;2024-02-21T02:01:48;101937.72;;;9.58;100.00
72612;BME280;60655;52.182;4.474;2024-02-21T02:03:53;101933.06;;;9.60;100.00
72612;BME280;60655;52.182;4.474;2024-02-21T02:05:55;101944.84;;;9.58;100.00
72612;BME280;60655;52.182;4.474;2024-02-21T02:07:56;101934.59;;;9.55;100.00
72612;BME280;60655;52.182;4.474;2024-02-21T02:09:57;101933.78;;;9.54;100.00
72612;BME280;60655;52.182;4.474;2024-02-21T02:11:58;101940.56;;;9.57;100.00
72612;BME280;60655;52.182;4.474;2024-02-21T02:13:59;101920.44;;;9.47;100.00
72612;BME280;60655;52.182;4.474;2024-02-21T02:16:00;101928.03;;;9.51;100.00
72612;BME280;60655;52.182;4.474;2024-02-21T02:18:01;101930.31;;;9.54;100.00
72612;BME280;60655;52.182;4.474;2024-02-21T02:20:02;101924.00;;;9.55;100.00
72612;BME280;60655;52.182;4.474;2024-02-21T02:22:14;101920.28;;;9.49;100.00
72612;BME280;60655;52.182;4.474;2024-02-21T02:24:19;101920.72;;;9.53;100.00
72612;BME280;60655;52.182;4.474;2024-02-21T02:26:21;101919.97;;;9.59;100.00
72612;BME280;60655;52.182;4.474;2024-02-21T02:28:22;101911.94;;;9.52;100.00
72612;BME280;60655;52.182;4.474;2024-02-21T02:30:23;101919.50;;;9.55;100.00
72612;BME280;60655;52.182;4.474;2024-02-21T02:32:23;101909.09;;;9.54;100.00
72612;BME280;60655;52.182;4.474;2024-02-21T02:34:24;101908.09;;;9.55;100.00
72612;BME280;60655;52.182;4.474;2024-02-21T02:36:25;101907.06;;;9.56;100.00
72612;BME280;60655;52.182;4.474;2024-02-21T02:38:26;101904.06;;;9.59;100.00
72612;BME280;60655;52.182;4.474;2024-02-21T02:40:27;101905.25;;;9.56;100.00
72612;BME280;60655;52.182;4.474;2024-02-21T02:42:27;101913.66;;;9.60;100.00
72612;BME280;60655;52.182;4.474;2024-02-21T02:44:28;101902.06;;;9.61;100.00
72612;BME280;60655;52.182;4.474;2024-02-21T02:46:29;101894.63;;;9.56;100.00
72612;BME280;60655;52.182;4.474;2024-02-21T02:48:30;101900.03;;;9.63;100.00
72612;BME280;60655;52.182;4.474;2024-02-21T02:50:31;101887.88;;;9.54;100.00
72612;BME280;60655;52.182;4.474;2024-02-21T02:52:32;101886.13;;;9.61;100.00
72612;BME280;60655;52.182;4.474;2024-02-21T02:54:33;101889.97;;;9.58;100.00
72612;BME280;60655;52.182;4.474;2024-02-21T02:56:34;101889.97;;;9.58;100.00
72612;BME280;60655;52.182;4.474;2024-02-21T02:58:34;101877.06;;;9.55;100.00
72612;BME280;60655;52.182;4.474;2024-02-21T03:00:35;101875.88;;;9.58;100.00
72612;BME280;60655;52.182;4.474;2024-02-21T03:02:38;101864.22;;;9.52;100.00
72612;BME280;60655;52.182;4.474;2024-02-21T03:04:40;101872.59;;;9.56;100.00
72612;BME280;60655;52.182;4.474;2024-02-21T03:06:40;101867.94;;;9.58;100.00
72612;BME280;60655;52.182;4.474;2024-02-21T03:08:41;101873.88;;;9.60;100.00
72612;BME280;60655;52.182;4.474;2024-02-21T03:10:43;101848.53;;;9.57;100.00
72612;BME280;60655;52.182;4.474;2024-02-21T03:12:44;101848.53;;;9.57;100.00
72612;BME280;60655;52.182;4.474;2024-02-21T03:14:45;101841.16;;;9.53;100.00
72612;BME280;60655;52.182;4.474;2024-02-21T03:16:46;101838.19;;;9.62;100.00
72612;BME280;60655;52.182;4.474;2024-02-21T03:18:47;101835.47;;;9.56;100.00
72612;BME280;60655;52.182;4.474;2024-02-21T03:20:48;101840.41;;;9.59;100.00
72612;BME280;60655;52.182;4.474;2024-02-21T03:22:49;101834.09;;;9.60;100.00
72612;BME280;60655;52.182;4.474;2024-02-21T03:24:50;101832.44;;;9.59;100.00
72612;BME280;60655;52.182;4.474;2024-02-21T03:26:51;101832.44;;;9.59;100.00
72612;BME280;60655;52.182;4.474;2024-02-21T03:28:51;101843.31;;;9.64;100.00
72612;BME280;60655;52.182;4.474;2024-02-21T03:30:52;101831.44;;;9.60;100.00
72612;BME280;60655;52.182;4.474;2024-02-21T03:32:53;101826.94;;;9.60;100.00
72612;BME280;60655;52.182;4.474;2024-02-21T03:34:54;101817.91;;;9.55;100.00
72612;BME280;60655;52.182;4.474;2024-02-21T03:36:55;101815.50;;;9.60;100.00
72612;BME280;60655;52.182;4.474;2024-02-21T03:38:56;101814.69;;;9.59;100.00
72612;BME280;60655;52.182;4.474;2024-02-21T03:40:57;101821.47;;;9.62;100.00
72612;BME280;60655;52.182;4.474;2024-02-21T03:42:58;101813.22;;;9.57;100.00
72612;BME280;60655;52.182;4.474;2024-02-21T03:44:59;101810.56;;;9.57;100.00
72612;BME280;60655;52.182;4.474;2024-02-21T03:47:00;101809.00;;;9.62;100.00
72612;BME280;60655;52.182;4.474;2024-02-21T03:49:01;101812.84;;;9.60;100.00
72612;BME280;60655;52.182;4.474;2024-02-21T03:51:02;101817.63;;;9.64;100.00
72612;BME280;60655;52.182;4.474;2024-02-21T03:53:03;101815.16;;;9.63;100.00
72612;BME280;60655;52.182;4.474;2024-02-21T03:55:04;101805.91;;;9.59;100.00
72612;BME280;60655;52.182;4.474;2024-02-21T03:57:05;101797.75;;;9.60;100.00
72612;BME280;60655;52.182;4.474;2024-02-21T03:59:07;101796.56;;;9.63;100.00
72612;BME280;60655;52.182;4.474;2024-02-21T04:01:08;101784.41;;;9.54;100.00
72612;BME280;60655;52.182;4.474;2024-02-21T04:03:09;101796.22;;;9.66;100.00
72612;BME280;60655;52.182;4.474;2024-02-21T04:05:10;101797.75;;;9.60;100.00
72612;BME280;60655;52.182;4.474;2024-02-21T04:07:12;101809.19;;;9.61;100.00
72612;BME280;60655;52.182;4.474;2024-02-21T04:09:13;101794.84;;;9.55;100.00
72612;BME280;60655;52.182;4.474;2024-02-21T04:11:14;101807.56;;;9.60;100.00
72612;BME280;60655;52.182;4.474;2024-02-21T04:13:15;101804.44;;;9.56;100.00
72612;BME280;60655;52.182;4.474;2024-02-21T04:15:16;101816.97;;;9.62;100.00
72612;BME280;60655;52.182;4.474;2024-02-21T04:17:17;101817.34;;;9.59;100.00
72612;BME280;60655;52.182;4.474;2024-02-21T04:19:18;101806.56;;;9.61;100.00
72612;BME280;60655;52.182;4.474;2024-02-21T04:21:19;101800.41;;;9.60;100.00
72612;BME280;60655;52.182;4.474;2024-02-21T04:23:20;101802.88;;;9.62;100.00
72612;BME280;60655;52.182;4.474;2024-02-21T04:25:21;101782.41;;;9.56;100.00
72612;BME280;60655;52.182;4.474;2024-02-21T04:27:22;101789.34;;;9.57;100.00
72612;BME280;60655;52.182;4.474;2024-02-21T04:29:23;101786.34;;;9.60;100.00
72612;BME280;60655;52.182;4.474;2024-02-21T04:31:24;101780.56;;;9.56;100.00
72612;BME280;60655;52.182;4.474;2024-02-21T04:33:25;101780.19;;;9.59;100.00
72612;BME280;60655;52.182;4.474;2024-02-21T04:35:26;101783.69;;;9.60;100.00
72612;BME280;60655;52.182;4.474;2024-02-21T04:37:27;101776.44;;;9.68;100.00
72612;BME280;60655;52.182;4.474;2024-02-21T04:39:28;101773.72;;;9.62;100.00
72612;BME280;60655;52.182;4.474;2024-02-21T04:41:29;101757.66;;;9.48;100.00
72612;BME280;60655;52.182;4.474;2024-02-21T04:43:30;101755.50;;;9.59;100.00
72612;BME280;60655;52.182;4.474;2024-02-21T04:45:30;101751.41;;;9.56;100.00
72612;BME280;60655;52.182;4.474;2024-02-21T04:47:32;101763.91;;;9.62;100.00
72612;BME280;60655;52.182;4.474;2024-02-21T04:49:33;101763.72;;;9.64;100.00
72612;BME280;60655;52.182;4.474;2024-02-21T04:51:34;101744.03;;;9.52;100.00
72612;BME280;60655;52.182;4.474;2024-02-21T04:53:35;101754.22;;;9.55;100.00
72612;BME280;60655;52.182;4.474;2024-02-21T04:55:36;101761.63;;;9.59;100.00
72612;BME280;60655;52.182;4.474;2024-02-21T04:57:37;101745.34;;;9.62;100.00
72612;BME280;60655;52.182;4.474;2024-02-21T04:59:38;101748.19;;;9.61;100.00
72612;BME280;60655;52.182;4.474;2024-02-21T05:01:39;101742.06;;;9.60;100.00
72612;BME280;60655;52.182;4.474;2024-02-21T05:03:40;101738.66;;;9.66;100.00
72612;BME280;60655;52.182;4.474;2024-02-21T05:05:41;101737.03;;;9.65;100.00
72612;BME280;60655;52.182;4.474;2024-02-21T05:07:41;101733.09;;;9.61;100.00
72612;BME280;60655;52.182;4.474;2024-02-21T05:09:42;101729.88;;;9.66;100.00
72612;BME280;60655;52.182;4.474;2024-02-21T05:11:43;101720.19;;;9.58;100.00
72612;BME280;60655;52.182;4.474;2024-02-21T05:13:44;101719.91;;;9.68;100.00
72612;BME280;60655;52.182;4.474;2024-02-21T05:15:46;101709.09;;;9.69;100.00
72612;BME280;60655;52.182;4.474;2024-02-21T05:17:47;101716.44;;;9.67;100.00
72612;BME280;60655;52.182;4.474;2024-02-21T05:19:48;101722.75;;;9.66;100.00
72612;BME280;60655;52.182;4.474;2024-02-21T05:21:48;101710.69;;;9.64;100.00
72612;BME280;60655;52.182;4.474;2024-02-21T05:23:50;101708.03;;;9.64;100.00
72612;BME280;60655;52.182;4.474;2024-02-21T05:25:51;101688.38;;;9.58;100.00
72612;BME280;60655;52.182;4.474;2024-02-21T05:27:52;101698.16;;;9.58;100.00
72612;BME280;60655;52.182;4.474;2024-02-21T05:29:56;101699.25;;;9.63;100.00
72612;BME280;60655;52.182;4.474;2024-02-21T05:31:57;101689.81;;;9.61;100.00
72612;BME280;60655;52.182;4.474;2024-02-21T05:33:58;101689.38;;;9.57;100.00
72612;BME280;60655;52.182;4.474;2024-02-21T05:35:59;101680.97;;;9.54;100.00
72612;BME280;60655;52.182;4.474;2024-02-21T05:38:00;101679.41;;;9.59;100.00
72612;BME280;60655;52.182;4.474;2024-02-21T05:40:01;101662.22;;;9.55;100.00
72612;BME280;60655;52.182;4.474;2024-02-21T05:42:02;101667.34;;;9.57;100.00
72612;BME280;60655;52.182;4.474;2024-02-21T05:44:03;101664.81;;;9.48;100.00
72612;BME280;60655;52.182;4.474;2024-02-21T05:46:04;101656.06;;;9.48;100.00
72612;BME280;60655;52.182;4.474;2024-02-21T05:48:05;101664.22;;;9.53;100.00
72612;BME280;60655;52.182;4.474;2024-02-21T05:50:06;101656.50;;;9.52;100.00
72612;BME280;60655;52.182;4.474;2024-02-21T05:52:07;101660.16;;;9.51;100.00
72612;BME280;60655;52.182;4.474;2024-02-21T05:54:08;101657.72;;;9.56;100.00
72612;BME280;60655;52.182;4.474;2024-02-21T05:56:13;101657.06;;;9.47;100.00
72612;BME280;60655;52.182;4.474;2024-02-21T05:58:14;101653.97;;;9.43;100.00
72612;BME280;60655;52.182;4.474;2024-02-21T06:00:15;101655.97;;;9.41;100.00
72612;BME280;60655;52.182;4.474;2024-02-21T06:02:16;101640.81;;;9.35;100.00
72612;BME280;60655;52.182;4.474;2024-02-21T06:04:17;101648.03;;;9.41;100.00
72612;BME280;60655;52.182;4.474;2024-02-21T06:06:18;101654.97;;;9.42;100.00
72612;BME280;60655;52.182;4.474;2024-02-21T06:08:18;101640.69;;;9.43;100.00
72612;BME280;60655;52.182;4.474;2024-02-21T06:10:21;101650.28;;;9.44;100.00
72612;BME280;60655;52.182;4.474;2024-02-21T06:12:21;101652.75;;;9.46;100.00
72612;BME280;60655;52.182;4.474;2024-02-21T06:14:22;101657.44;;;9.44;100.00
72612;BME280;60655;52.182;4.474;2024-02-21T06:16:23;101651.94;;;9.45;100.00
72612;BME280;60655;52.182;4.474;2024-02-21T06:18:24;101660.91;;;9.44;100.00
72612;BME280;60655;52.182;4.474;2024-02-21T06:20:25;101659.06;;;9.45;100.00
72612;BME280;60655;52.182;4.474;2024-02-21T06:22:26;101658.50;;;9.50;100.00
72612;BME280;60655;52.182;4.474;2024-02-21T06:24:26;101662.28;;;9.40;100.00
72612;BME280;60655;52.182;4.474;2024-02-21T06:26:27;101674.97;;;9.45;100.00
72612;BME280;60655;52.182;4.474;2024-02-21T06:28:28;101670.06;;;9.42;100.00
72612;BME280;60655;52.182;4.474;2024-02-21T06:30:29;101666.88;;;9.32;100.00
72612;BME280;60655;52.182;4.474;2024-02-21T06:32:30;101667.59;;;9.40;100.00
72612;BME280;60655;52.182;4.474;2024-02-21T06:34:31;101665.38;;;9.44;100.00
72612;BME280;60655;52.182;4.474;2024-02-21T06:36:32;101659.91;;;9.45;100.00
72612;BME280;60655;52.182;4.474;2024-02-21T06:38:32;101655.34;;;9.39;100.00
72612;BME280;60655;52.182;4.474;2024-02-21T06:40:34;101654.31;;;9.40;100.00
72612;BME280;60655;52.182;4.474;2024-02-21T06:42:39;101655.06;;;9.34;100.00
72612;BME280;60655;52.182;4.474;2024-02-21T06:44:40;101654.16;;;9.42;100.00
72612;BME280;60655;52.182;4.474;2024-02-21T06:46:41;101635.13;;;9.38;100.00
72612;BME280;60655;52.182;4.474;2024-02-21T06:48:42;101633.75;;;9.42;100.00
72612;BME280;60655;52.182;4.474;2024-02-21T06:50:42;101624.97;;;9.42;100.00
72612;BME280;60655;52.182;4.474;2024-02-21T06:52:43;101635.38;;;9.43;100.00
72612;BME280;60655;52.182;4.474;2024-02-21T06:54:44;101621.06;;;9.38;100.00
72612;BME280;60655;52.182;4.474;2024-02-21T06:56:45;101622.31;;;9.42;100.00
72612;BME280;60655;52.182;4.474;2024-02-21T06:58:48;101621.69;;;9.40;100.00
72612;BME280;60655;52.182;4.474;2024-02-21T07:00:49;101618.22;;;9.39;100.00
72612;BME280;60655;52.182;4.474;2024-02-21T07:02:50;101607.91;;;9.30;100.00
72612;BME280;60655;52.182;4.474;2024-02-21T07:04:51;101610.25;;;9.39;100.00
72612;BME280;60655;52.182;4.474;2024-02-21T07:06:52;101613.16;;;9.44;100.00
72612;BME280;60655;52.182;4.474;2024-02-21T07:08:52;101607.03;;;9.44;100.00
72612;BME280;60655;52.182;4.474;2024-02-21T07:10:53;101608.06;;;9.43;100.00
72612;BME280;60655;52.182;4.474;2024-02-21T07:12:54;101606.78;;;9.39;100.00
72612;BME280;60655;52.182;4.474;2024-02-21T07:14:55;101600.84;;;9.37;100.00
72612;BME280;60655;52.182;4.474;2024-02-21T07:16:56;101587.22;;;9.40;100.00
72612;BME280;60655;52.182;4.474;2024-02-21T07:18:58;101586.13;;;9.34;100.00
72612;BME280;60655;52.182;4.474;2024-02-21T07:20:59;101585.94;;;9.36;100.00
72612;BME280;60655;52.182;4.474;2024-02-21T07:22:59;101580.25;;;9.39;100.00
72612;BME280;60655;52.182;4.474;2024-02-21T07:25:00;101566.31;;;9.30;100.00
72612;BME280;60655;52.182;4.474;2024-02-21T07:27:01;101567.38;;;9.36;100.00
72612;BME280;60655;52.182;4.474;2024-02-21T07:29:05;101567.19;;;9.37;100.00
72612;BME280;60655;52.182;4.474;2024-02-21T07:31:05;101569.72;;;9.45;100.00
72612;BME280;60655;52.182;4.474;2024-02-21T07:33:06;101562.16;;;9.42;100.00
72612;BME280;60655;52.182;4.474;2024-02-21T07:35:08;101556.97;;;9.34;100.00
72612;BME280;60655;52.182;4.474;2024-02-21T07:37:12;101550.28;;;9.38;100.00
72612;BME280;60655;52.182;4.474;2024-02-21T07:39:13;101566.88;;;9.47;100.00
72612;BME280;60655;52.182;4.474;2024-02-21T07:41:14;101562.41;;;9.47;100.00
72612;BME280;60655;52.182;4.474;2024-02-21T07:43:15;101566.25;;;9.45;100.00
72612;BME280;60655;52.182;4.474;2024-02-21T07:45:15;101556.59;;;9.37;100.00
72612;BME280;60655;52.182;4.474;2024-02-21T07:47:16;101546.34;;;9.34;100.00
72612;BME280;60655;52.182;4.474;2024-02-21T07:49:17;101542.69;;;9.35;100.00
72612;BME280;60655;52.182;4.474;2024-02-21T07:51:18;101529.19;;;9.30;100.00
72612;BME280;60655;52.182;4.474;2024-02-21T07:53:20;101542.69;;;9.35;100.00
72612;BME280;60655;52.182;4.474;2024-02-21T07:55:21;101538.22;;;9.36;100.00
72612;BME280;60655;52.182;4.474;2024-02-21T07:57:22;101538.41;;;9.34;100.00
72612;BME280;60655;52.182;4.474;2024-02-21T07:59:23;101531.84;;;9.30;100.00
72612;BME280;60655;52.182;4.474;2024-02-21T08:01:24;101544.41;;;9.43;100.00
72612;BME280;60655;52.182;4.474;2024-02-21T08:03:25;101526.41;;;9.38;100.00
72612;BME280;60655;52.182;4.474;2024-02-21T08:05:26;101529.31;;;9.43;100.00
72612;BME280;60655;52.182;4.474;2024-02-21T08:07:27;101526.03;;;9.41;100.00
72612;BME280;60655;52.182;4.474;2024-02-21T08:09:30;101519.09;;;9.40;100.00
72612;BME280;60655;52.182;4.474;2024-02-21T08:11:31;101520.09;;;9.39;100.00
72612;BME280;60655;52.182;4.474;2024-02-21T08:13:31;101506.00;;;9.39;100.00
72612;BME280;60655;52.182;4.474;2024-02-21T08:15:32;101508.03;;;9.37;100.00
72612;BME280;60655;52.182;4.474;2024-02-21T08:17:34;101509.06;;;9.36;100.00
72612;BME280;60655;52.182;4.474;2024-02-21T08:19:36;101505.44;;;9.43;100.00
72612;BME280;60655;52.182;4.474;2024-02-21T08:21:37;101500.16;;;9.43;100.00
72612;BME280;60655;52.182;4.474;2024-02-21T08:23:38;101500.78;;;9.45;100.00
72612;BME280;60655;52.182;4.474;2024-02-21T08:25:39;101500.97;;;9.44;100.00
72612;BME280;60655;52.182;4.474;2024-02-21T08:27:39;101498.13;;;9.45;100.00
72612;BME280;60655;52.182;4.474;2024-02-21T08:29:40;101495.47;;;9.45;100.00
72612;BME280;60655;52.182;4.474;2024-02-21T08:31:41;101484.66;;;9.47;100.00
72612;BME280;60655;52.182;4.474;2024-02-21T08:33:42;101488.53;;;9.44;100.00
72612;BME280;60655;52.182;4.474;2024-02-21T08:35:43;101484.66;;;9.47;100.00
72612;BME280;60655;52.182;4.474;2024-02-21T08:37:44;101471.34;;;9.40;100.00
72612;BME280;60655;52.182;4.474;2024-02-21T08:39:47;101464.09;;;9.49;100.00
72612;BME280;60655;52.182;4.474;2024-02-21T08:41:47;101475.69;;;9.48;100.00
72612;BME280;60655;52.182;4.474;2024-02-21T08:43:49;101482.25;;;9.52;100.00
72612;BME280;60655;52.182;4.474;2024-02-21T08:45:49;101459.34;;;9.44;100.00
72612;BME280;60655;52.182;4.474;2024-02-21T08:47:50;101472.06;;;9.56;100.00
72612;BME280;60655;52.182;4.474;2024-02-21T08:49:51;101473.75;;;9.63;100.00
72612;BME280;60655;52.182;4.474;2024-02-21T08:51:52;101467.00;;;9.61;100.00
72612;BME280;60655;52.182;4.474;2024-02-21T08:53:53;101471.25;;;9.55;100.00
72612;BME280;60655;52.182;4.474;2024-02-21T08:55:54;101467.38;;;9.51;100.00
72612;BME280;60655;52.182;4.474;2024-02-21T08:57:55;101462.06;;;9.51;100.00
72612;BME280;60655;52.182;4.474;2024-02-21T08:59:56;101458.59;;;9.51;100.00
72612;BME280;60655;52.182;4.474;2024-02-21T09:01:56;101453.50;;;9.56;100.00
72612;BME280;60655;52.182;4.474;2024-02-21T09:03:57;101450.25;;;9.60;100.00
72612;BME280;60655;52.182;4.474;2024-02-21T09:05:59;101437.81;;;9.61;100.00
72612;BME280;60655;52.182;4.474;2024-02-21T09:08:00;101434.78;;;9.64;100.00
72612;BME280;60655;52.182;4.474;2024-02-21T09:10:01;101419.88;;;9.63;100.00
72612;BME280;60655;52.182;4.474;2024-02-21T09:12:05;101422.78;;;9.68;100.00
72612;BME280;60655;52.182;4.474;2024-02-21T09:14:06;101406.00;;;9.61;100.00
72612;BME280;60655;52.182;4.474;2024-02-21T09:16:08;101416.03;;;9.65;100.00
72612;BME280;60655;52.182;4.474;2024-02-21T09:18:09;101406.66;;;9.69;100.00
72612;BME280;60655;52.182;4.474;2024-02-21T09:20:10;101402.94;;;9.64;100.00
72612;BME280;60655;52.182;4.474;2024-02-21T09:22:12;101403.00;;;9.70;100.00
72612;BME280;60655;52.182;4.474;2024-02-21T09:24:13;101394.22;;;9.70;100.00
72612;BME280;60655;52.182;4.474;2024-02-21T09:26:14;101390.13;;;9.67;100.00
72612;BME280;60655;52.182;4.474;2024-02-21T09:28:16;101382.34;;;9.66;100.00
72612;BME280;60655;52.182;4.474;2024-02-21T09:30:17;101361.53;;;9.63;100.00
72612;BME280;60655;52.182;4.474;2024-02-21T09:32:19;101359.50;;;9.65;100.00
72612;BME280;60655;52.182;4.474;2024-02-21T09:34:20;101357.50;;;9.73;100.00
72612;BME280;60655;52.182;4.474;2024-02-21T09:36:22;101351.38;;;9.73;100.00
72612;BME280;60655;52.182;4.474;2024-02-21T09:38:23;101353.22;;;9.72;100.00
72612;BME280;60655;52.182;4.474;2024-02-21T09:40:24;101346.66;;;9.68;100.00
72612;BME280;60655;52.182;4.474;2024-02-21T09:42:38;101337.69;;;9.69;100.00
72612;BME280;60655;52.182;4.474;2024-02-21T09:44:39;101346.69;;;9.75;100.00
72612;BME280;60655;52.182;4.474;2024-02-21T09:46:56;101337.91;;;9.74;100.00
72612;BME280;60655;52.182;4.474;2024-02-21T09:49:18;101341.41;;;9.81;100.00
72612;BME280;60655;52.182;4.474;2024-02-21T09:51:22;101325.50;;;9.81;100.00
72612;BME280;60655;52.182;4.474;2024-02-21T09:53:24;101325.28;;;9.83;100.00
72612;BME280;60655;52.182;4.474;2024-02-21T09:55:26;101321.44;;;9.92;100.00
72612;BME280;60655;52.182;4.474;2024-02-21T09:57:28;101306.31;;;9.86;100.00
72612;BME280;60655;52.182;4.474;2024-02-21T09:59:31;101306.53;;;9.91;100.00
72612;BME280;60655;52.182;4.474;2024-02-21T10:01:32;101301.41;;;9.90;100.00
72612;BME280;60655;52.182;4.474;2024-02-21T10:03:34;101304.50;;;10.00;100.00
72612;BME280;60655;52.182;4.474;2024-02-21T10:05:35;101300.81;;;9.94;100.00
72612;BME280;60655;52.182;4.474;2024-02-21T10:07:38;101293.47;;;9.90;100.00
72612;BME280;60655;52.182;4.474;2024-02-21T10:09:40;101284.28;;;9.92;100.00
72612;BME280;60655;52.182;4.474;2024-02-21T10:11:42;101267.53;;;9.78;100.00
72612;BME280;60655;52.182;4.474;2024-02-21T10:13:43;101274.06;;;9.89;100.00
72612;BME280;60655;52.182;4.474;2024-02-21T10:15:45;101267.13;;;9.88;100.00
72612;BME280;60655;52.182;4.474;2024-02-21T10:18:01;101251.00;;;9.90;100.00
72612;BME280;60655;52.182;4.474;2024-02-21T10:20:09;101248.56;;;9.95;100.00
72612;BME280;60655;52.182;4.474;2024-02-21T10:22:10;101248.34;;;9.96;100.00
72612;BME280;60655;52.182;4.474;2024-02-21T10:24:12;101258.38;;;10.01;100.00
72612;BME280;60655;52.182;4.474;2024-02-21T10:26:14;101245.50;;;9.91;100.00
72612;BME280;60655;52.182;4.474;2024-02-21T10:28:15;101242.44;;;9.81;100.00
72612;BME280;60655;52.182;4.474;2024-02-21T10:30:17;101235.47;;;9.80;100.00
72612;BME280;60655;52.182;4.474;2024-02-21T10:32:19;101240.38;;;9.76;100.00
72612;BME280;60655;52.182;4.474;2024-02-21T10:34:20;101250.38;;;9.81;100.00